Main page
METAR-TAF:

METAR-TAF

Airports :

Cambridge Airport

Cambridge, England

latitude: 52-12N, longitude: 000-11E, elevation: 15 m

Current weather observation

The report was made 6 hours and 38 minutes ago, at 16:50 UTC
Wind 13 kt from the South, varying between South/Southeast and Southwest
Temperature 14°C
Humidity 67%
Pressure 1009 hPa
Visibility 10 km or more
Few clouds at a height of 3500 ft
light rain,

METAR: EGSC 131650Z 19013KT 160V230 9999 -RA FEW035 14/08 Q1009

Time: 00:28 (23:28 UTC)

Forecast

The report was made 9 hours and 31 minutes ago, at 13:57 UTC
Forecast valid from 13 at 15 UTC to 13 at 17 UTC
Wind 10 kt from the South/Southwest
Visibility 10 km or more
Few clouds at a height of 4000 ft
Temporary
from 13 at 16 UTC to 13 at 17 UTC
Visibility: 6000 m
Broken clouds at a height of 900 ft
rain,

TAF: EGSC 131357Z 1315/1317 20010KT 9999 FEW040 TEMPO 1316/1317 6000 RA BKN009

Weather observations and forecasts of more than 4000 airports (METAR and TAF reports).

The available stations are represented by yellow and red dots on the map.

Hover mouse over dot to see the name of the station.

Then click to see weather observations and forecasts.

To change the map : click on the green buttons with a black cross to zoom in, on the green button with a dash to zoom out, or on the green arrows for adjacent maps.


METAR-TAF: